sensor_id;sensor_type;location;lat;lon;timestamp;pressure;altitude;pressure_sealevel;temperature;humidity
59825;BME280;45703;50.898;6.054;2023-05-22T00:01:24;100020.63;;;18.07;84.89
59825;BME280;45703;50.898;6.054;2023-05-22T00:03:51;100012.00;;;18.00;84.59
59825;BME280;45703;50.898;6.054;2023-05-22T00:06:17;100016.84;;;18.03;84.99
59825;BME280;45703;50.898;6.054;2023-05-22T00:08:43;100022.81;;;18.00;86.65
59825;BME280;45703;50.898;6.054;2023-05-22T00:11:08;100010.13;;;17.96;86.39
59825;BME280;45703;50.898;6.054;2023-05-22T00:13:34;100008.78;;;17.88;87.32
59825;BME280;45703;50.898;6.054;2023-05-22T00:15:59;100003.41;;;17.83;89.06
59825;BME280;45703;50.898;6.054;2023-05-22T00:18:25;100005.59;;;17.76;90.10
59825;BME280;45703;50.898;6.054;2023-05-22T00:20:51;100012.88;;;17.71;88.70
59825;BME280;45703;50.898;6.054;2023-05-22T00:23:17;100011.00;;;17.71;88.90
59825;BME280;45703;50.898;6.054;2023-05-22T00:25:43;100001.28;;;17.65;88.62
59825;BME280;45703;50.898;6.054;2023-05-22T00:28:10;99995.06;;;17.60;87.35
59825;BME280;45703;50.898;6.054;2023-05-22T00:30:36;99994.25;;;17.59;87.71
59825;BME280;45703;50.898;6.054;2023-05-22T00:33:01;99997.78;;;17.55;88.98
59825;BME280;45703;50.898;6.054;2023-05-22T00:35:30;99998.06;;;17.48;88.74
59825;BME280;45703;50.898;6.054;2023-05-22T00:37:55;99993.75;;;17.42;90.29
59825;BME280;45703;50.898;6.054;2023-05-22T00:40:21;100001.31;;;17.41;90.24
59825;BME280;45703;50.898;6.054;2023-05-22T00:42:46;99994.81;;;17.32;92.02
59825;BME280;45703;50.898;6.054;2023-05-22T00:45:15;99994.28;;;17.30;88.23
59825;BME280;45703;50.898;6.054;2023-05-22T00:47:41;99992.09;;;17.32;90.67
59825;BME280;45703;50.898;6.054;2023-05-22T00:50:09;99991.81;;;17.28;89.89
59825;BME280;45703;50.898;6.054;2023-05-22T00:52:37;99991.28;;;17.21;92.89
59825;BME280;45703;50.898;6.054;2023-05-22T00:55:04;99982.13;;;17.12;91.17
59825;BME280;45703;50.898;6.054;2023-05-22T00:57:31;100001.28;;;17.16;91.20
59825;BME280;45703;50.898;6.054;2023-05-22T00:59:58;99991.03;;;17.13;90.58
59825;BME280;45703;50.898;6.054;2023-05-22T01:02:24;99996.44;;;17.13;90.54
59825;BME280;45703;50.898;6.054;2023-05-22T01:04:50;100001.28;;;17.11;90.25
59825;BME280;45703;50.898;6.054;2023-05-22T01:07:16;99994.78;;;17.07;89.99
59825;BME280;45703;50.898;6.054;2023-05-22T01:09:42;99993.72;;;17.08;89.87
59825;BME280;45703;50.898;6.054;2023-05-22T01:12:29;99996.94;;;17.05;90.55
59825;BME280;45703;50.898;6.054;2023-05-22T01:15:09;99988.84;;;17.00;90.05
59825;BME280;45703;50.898;6.054;2023-05-22T01:17:57;99989.38;;;16.97;90.29
59825;BME280;45703;50.898;6.054;2023-05-22T01:20:30;99995.31;;;16.99;90.04
59825;BME280;45703;50.898;6.054;2023-05-22T01:23:52;99990.47;;;16.96;88.56
59825;BME280;45703;50.898;6.054;2023-05-22T01:32:12;99993.97;;;16.86;91.14
59825;BME280;45703;50.898;6.054;2023-05-22T01:34:42;99985.59;;;16.83;91.27
59825;BME280;45703;50.898;6.054;2023-05-22T01:37:08;99987.22;;;16.84;90.84
59825;BME280;45703;50.898;6.054;2023-05-22T01:39:34;99983.44;;;16.75;91.26
59825;BME280;45703;50.898;6.054;2023-05-22T01:42:00;99987.75;;;16.71;92.55
59825;BME280;45703;50.898;6.054;2023-05-22T01:44:26;99995.31;;;16.74;90.94
59825;BME280;45703;50.898;6.054;2023-05-22T01:46:51;99992.06;;;16.67;96.41
59825;BME280;45703;50.898;6.054;2023-05-22T01:49:17;100000.69;;;16.64;93.05
59825;BME280;45703;50.898;6.054;2023-05-22T01:51:52;99995.81;;;16.66;92.35
59825;BME280;45703;50.898;6.054;2023-05-22T01:54:54;99994.19;;;16.60;91.08
59825;BME280;45703;50.898;6.054;2023-05-22T02:00:11;100002.78;;;16.52;92.19
59825;BME280;45703;50.898;6.054;2023-05-22T02:02:42;99994.69;;;16.47;93.47
59825;BME280;45703;50.898;6.054;2023-05-22T02:05:09;99984.44;;;16.44;92.53
59825;BME280;45703;50.898;6.054;2023-05-22T02:07:40;99991.72;;;16.43;91.11
59825;BME280;45703;50.898;6.054;2023-05-22T02:10:06;99992.81;;;16.47;89.84
59825;BME280;45703;50.898;6.054;2023-05-22T02:12:34;99999.25;;;16.41;92.58
59825;BME280;45703;50.898;6.054;2023-05-22T02:15:00;99992.25;;;16.35;93.21
59825;BME280;45703;50.898;6.054;2023-05-22T02:17:26;100000.03;;;16.37;92.13
59825;BME280;45703;50.898;6.054;2023-05-22T02:19:51;99999.50;;;16.35;91.22
59825;BME280;45703;50.898;6.054;2023-05-22T02:22:17;100003.28;;;16.39;92.83
59825;BME280;45703;50.898;6.054;2023-05-22T02:24:45;99994.06;;;16.30;93.04
59825;BME280;45703;50.898;6.054;2023-05-22T02:27:11;99994.31;;;16.28;93.61
59825;BME280;45703;50.898;6.054;2023-05-22T02:29:37;99994.56;;;16.22;93.67
59825;BME280;45703;50.898;6.054;2023-05-22T02:32:03;99998.34;;;16.21;93.58
59825;BME280;45703;50.898;6.054;2023-05-22T02:34:29;99998.31;;;16.11;94.20
59825;BME280;45703;50.898;6.054;2023-05-22T02:36:58;99998.84;;;16.13;93.38
59825;BME280;45703;50.898;6.054;2023-05-22T02:39:26;99996.41;;;16.11;93.56
59825;BME280;45703;50.898;6.054;2023-05-22T02:41:52;99993.69;;;16.06;93.56
59825;BME280;45703;50.898;6.054;2023-05-22T02:44:17;99997.75;;;16.09;93.16
59825;BME280;45703;50.898;6.054;2023-05-22T02:46:42;99992.59;;;16.02;92.70
59825;BME280;45703;50.898;6.054;2023-05-22T02:49:08;99999.88;;;16.07;93.98
59825;BME280;45703;50.898;6.054;2023-05-22T02:51:33;99989.91;;;16.02;94.56
59825;BME280;45703;50.898;6.054;2023-05-22T02:53:59;99992.28;;;15.99;94.65
59825;BME280;45703;50.898;6.054;2023-05-22T02:56:24;99977.69;;;15.85;96.16
59825;BME280;45703;50.898;6.054;2023-05-22T02:58:53;99980.38;;;15.85;94.51
59825;BME280;45703;50.898;6.054;2023-05-22T03:01:18;99984.69;;;15.81;94.23
59825;BME280;45703;50.898;6.054;2023-05-22T03:03:44;99984.69;;;15.81;94.90
59825;BME280;45703;50.898;6.054;2023-05-22T03:06:09;99987.03;;;15.73;93.86
59825;BME280;45703;50.898;6.054;2023-05-22T03:08:35;99994.34;;;15.77;96.53
59825;BME280;45703;50.898;6.054;2023-05-22T03:11:05;99987.88;;;15.73;93.96
59825;BME280;45703;50.898;6.054;2023-05-22T03:13:30;99992.94;;;15.70;94.69
59825;BME280;45703;50.898;6.054;2023-05-22T03:15:56;99984.59;;;15.66;96.31
59825;BME280;45703;50.898;6.054;2023-05-22T03:18:23;99977.00;;;15.58;95.66
59825;BME280;45703;50.898;6.054;2023-05-22T03:20:49;99983.94;;;15.54;100.00
59825;BME280;45703;50.898;6.054;2023-05-22T03:23:15;99984.78;;;15.55;96.85
59825;BME280;45703;50.898;6.054;2023-05-22T03:25:40;99983.94;;;15.54;95.56
59825;BME280;45703;50.898;6.054;2023-05-22T03:28:05;99985.56;;;15.55;98.12
59825;BME280;45703;50.898;6.054;2023-05-22T03:30:31;99979.59;;;15.48;96.23
59825;BME280;45703;50.898;6.054;2023-05-22T03:32:56;99974.00;;;15.50;98.61
59825;BME280;45703;50.898;6.054;2023-05-22T03:35:22;99977.41;;;15.40;98.97
59825;BME280;45703;50.898;6.054;2023-05-22T03:37:49;99978.22;;;15.41;95.88
59825;BME280;45703;50.898;6.054;2023-05-22T03:40:14;99974.16;;;15.38;97.56
59825;BME280;45703;50.898;6.054;2023-05-22T03:42:40;99993.53;;;15.40;97.95
59825;BME280;45703;50.898;6.054;2023-05-22T03:45:06;99982.81;;;15.45;96.78
59825;BME280;45703;50.898;6.054;2023-05-22T03:47:31;99983.69;;;15.51;96.94
59825;BME280;45703;50.898;6.054;2023-05-22T03:49:56;99985.00;;;15.48;96.40
59825;BME280;45703;50.898;6.054;2023-05-22T03:52:22;99985.81;;;15.49;97.35
59825;BME280;45703;50.898;6.054;2023-05-22T03:54:47;99984.19;;;15.48;98.33
59825;BME280;45703;50.898;6.054;2023-05-22T03:57:13;99981.22;;;15.49;97.90
59825;BME280;45703;50.898;6.054;2023-05-22T03:59:40;99984.44;;;15.46;97.12
59825;BME280;45703;50.898;6.054;2023-05-22T04:02:05;99986.09;;;15.52;97.10
59825;BME280;45703;50.898;6.054;2023-05-22T04:04:32;99974.75;;;15.45;98.84
59825;BME280;45703;50.898;6.054;2023-05-22T04:06:58;99987.69;;;15.48;98.63
59825;BME280;45703;50.898;6.054;2023-05-22T04:09:30;99988.22;;;15.50;97.72
59825;BME280;45703;50.898;6.054;2023-05-22T04:11:55;99993.63;;;15.50;97.28
59825;BME280;45703;50.898;6.054;2023-05-22T04:14:21;99988.19;;;15.45;98.16
59825;BME280;45703;50.898;6.054;2023-05-22T04:16:46;99994.97;;;15.48;97.28
59825;BME280;45703;50.898;6.054;2023-05-22T04:19:11;99989.28;;;15.44;97.25
59825;BME280;45703;50.898;6.054;2023-05-22T04:21:38;100003.28;;;15.46;98.25
59825;BME280;45703;50.898;6.054;2023-05-22T04:24:03;99998.19;;;15.50;97.36
59825;BME280;45703;50.898;6.054;2023-05-22T04:26:33;99997.13;;;15.51;98.29
59825;BME280;45703;50.898;6.054;2023-05-22T04:29:00;99998.47;;;15.53;99.95
59825;BME280;45703;50.898;6.054;2023-05-22T04:31:26;99999.81;;;15.51;100.00
59825;BME280;45703;50.898;6.054;2023-05-22T04:33:52;100007.63;;;15.52;98.39
59825;BME280;45703;50.898;6.054;2023-05-22T04:36:19;100003.84;;;15.53;99.61
59825;BME280;45703;50.898;6.054;2023-05-22T04:38:47;100007.41;;;15.59;98.85
59825;BME280;45703;50.898;6.054;2023-05-22T04:41:13;100006.63;;;15.58;99.00
59825;BME280;45703;50.898;6.054;2023-05-22T04:43:42;100020.84;;;15.59;99.13
59825;BME280;45703;50.898;6.054;2023-05-22T04:46:08;100022.19;;;15.56;98.99
59825;BME280;45703;50.898;6.054;2023-05-22T04:48:33;100001.13;;;15.48;98.33
59825;BME280;45703;50.898;6.054;2023-05-22T04:50:59;100011.66;;;15.50;98.26
59825;BME280;45703;50.898;6.054;2023-05-22T04:53:27;100018.91;;;15.49;99.93
59825;BME280;45703;50.898;6.054;2023-05-22T04:55:55;100024.28;;;15.49;99.84
59825;BME280;45703;50.898;6.054;2023-05-22T04:58:21;100029.94;;;15.48;99.28
59825;BME280;45703;50.898;6.054;2023-05-22T05:00:47;100019.41;;;15.46;99.92
59825;BME280;45703;50.898;6.054;2023-05-22T05:03:13;100022.06;;;15.41;99.46
59825;BME280;45703;50.898;6.054;2023-05-22T05:05:39;100020.22;;;15.42;99.12
59825;BME280;45703;50.898;6.054;2023-05-22T05:08:04;100026.09;;;15.39;98.94
59825;BME280;45703;50.898;6.054;2023-05-22T05:10:30;100027.44;;;15.41;100.00
59825;BME280;45703;50.898;6.054;2023-05-22T05:12:55;100029.34;;;15.41;100.00
59825;BME280;45703;50.898;6.054;2023-05-22T05:15:20;100030.41;;;15.40;100.00
59825;BME280;45703;50.898;6.054;2023-05-22T05:17:47;100035.47;;;15.36;100.00
59825;BME280;45703;50.898;6.054;2023-05-22T05:20:13;100024.72;;;15.36;100.00
59825;BME280;45703;50.898;6.054;2023-05-22T05:22:39;100029.59;;;15.39;100.00
59825;BME280;45703;50.898;6.054;2023-05-22T05:25:05;100025.84;;;15.40;100.00
59825;BME280;45703;50.898;6.054;2023-05-22T05:27:31;100032.03;;;15.41;100.00
59825;BME280;45703;50.898;6.054;2023-05-22T05:29:57;100007.47;;;15.32;100.00
59825;BME280;45703;50.898;6.054;2023-05-22T05:32:22;100020.97;;;15.37;100.00
59825;BME280;45703;50.898;6.054;2023-05-22T05:34:47;100037.16;;;15.42;100.00
59825;BME280;45703;50.898;6.054;2023-05-22T05:37:15;100028.78;;;15.39;100.00
59825;BME280;45703;50.898;6.054;2023-05-22T05:39:41;100031.72;;;15.37;100.00
59825;BME280;45703;50.898;6.054;2023-05-22T05:42:06;100038.22;;;15.41;100.00
59825;BME280;45703;50.898;6.054;2023-05-22T05:44:32;100042.31;;;15.49;100.00
59825;BME280;45703;50.898;6.054;2023-05-22T05:46:57;100028.56;;;15.45;100.00
59825;BME280;45703;50.898;6.054;2023-05-22T05:49:23;100033.41;;;15.48;100.00
59825;BME280;45703;50.898;6.054;2023-05-22T05:51:48;100038.28;;;15.51;100.00
59825;BME280;45703;50.898;6.054;2023-05-22T05:54:14;100031.78;;;15.47;100.00
59825;BME280;45703;50.898;6.054;2023-05-22T05:56:39;100042.59;;;15.52;100.00
59825;BME280;45703;50.898;6.054;2023-05-22T05:59:05;100042.66;;;15.57;100.00
59825;BME280;45703;50.898;6.054;2023-05-22T06:01:33;100043.75;;;15.61;100.00
59825;BME280;45703;50.898;6.054;2023-05-22T06:03:59;100043.25;;;15.64;100.00
59825;BME280;45703;50.898;6.054;2023-05-22T06:06:30;100038.09;;;15.63;100.00
59825;BME280;45703;50.898;6.054;2023-05-22T06:09:01;100045.97;;;15.69;100.00
59825;BME280;45703;50.898;6.054;2023-05-22T06:11:27;100042.47;;;15.74;99.96
59825;BME280;45703;50.898;6.054;2023-05-22T06:13:52;100047.06;;;15.73;99.50
59825;BME280;45703;50.898;6.054;2023-05-22T06:16:18;100045.47;;;15.77;100.00
59825;BME280;45703;50.898;6.054;2023-05-22T06:18:44;100053.25;;;15.74;100.00
59825;BME280;45703;50.898;6.054;2023-05-22T06:21:10;100057.31;;;15.76;100.00
59825;BME280;45703;50.898;6.054;2023-05-22T06:23:36;100050.84;;;15.72;100.00
59825;BME280;45703;50.898;6.054;2023-05-22T06:26:02;100049.47;;;15.70;99.78
59825;BME280;45703;50.898;6.054;2023-05-22T06:28:27;100055.13;;;15.68;100.00
59825;BME280;45703;50.898;6.054;2023-05-22T06:30:53;100064.25;;;15.67;100.00
59825;BME280;45703;50.898;6.054;2023-05-22T06:33:18;100052.91;;;15.60;99.51
59825;BME280;45703;50.898;6.054;2023-05-22T06:35:43;100057.75;;;15.58;100.00
59825;BME280;45703;50.898;6.054;2023-05-22T06:38:09;100069.00;;;15.55;100.00
59825;BME280;45703;50.898;6.054;2023-05-22T06:40:34;100057.66;;;15.53;100.00
59825;BME280;45703;50.898;6.054;2023-05-22T06:43:00;100062.53;;;15.56;100.00
59825;BME280;45703;50.898;6.054;2023-05-22T06:45:25;100074.13;;;15.57;100.00
59825;BME280;45703;50.898;6.054;2023-05-22T06:47:52;100080.34;;;15.57;100.00
59825;BME280;45703;50.898;6.054;2023-05-22T06:50:18;100074.66;;;15.54;100.00
59825;BME280;45703;50.898;6.054;2023-05-22T06:52:44;100085.09;;;15.50;100.00
59825;BME280;45703;50.898;6.054;2023-05-22T06:55:10;100079.72;;;15.50;100.00
59825;BME280;45703;50.898;6.054;2023-05-22T06:57:35;100074.84;;;15.47;100.00
59825;BME280;45703;50.898;6.054;2023-05-22T07:00:02;100078.91;;;15.50;100.00
59825;BME280;45703;50.898;6.054;2023-05-22T07:02:28;100080.78;;;15.49;100.00
59825;BME280;45703;50.898;6.054;2023-05-22T07:04:54;100093.19;;;15.55;100.00
59825;BME280;45703;50.898;6.054;2023-05-22T07:07:20;100087.28;;;15.53;100.00
59825;BME280;45703;50.898;6.054;2023-05-22T07:09:45;100096.16;;;15.54;100.00
59825;BME280;45703;50.898;6.054;2023-05-22T07:12:11;100098.09;;;15.58;100.00
59825;BME280;45703;50.898;6.054;2023-05-22T07:14:37;100092.19;;;15.61;100.00
59825;BME280;45703;50.898;6.054;2023-05-22T07:17:03;100086.81;;;15.61;100.00
59825;BME280;45703;50.898;6.054;2023-05-22T07:19:28;100097.88;;;15.65;100.00
59825;BME280;45703;50.898;6.054;2023-05-22T07:21:53;100098.47;;;15.72;99.93
59825;BME280;45703;50.898;6.054;2023-05-22T07:24:19;100103.09;;;15.76;99.71
59825;BME280;45703;50.898;6.054;2023-05-22T07:26:44;100104.69;;;15.77;99.50
59825;BME280;45703;50.898;6.054;2023-05-22T07:29:11;100114.13;;;15.80;98.98
59825;BME280;45703;50.898;6.054;2023-05-22T07:31:37;100114.13;;;15.80;99.45
59825;BME280;45703;50.898;6.054;2023-05-22T07:34:03;100106.31;;;15.78;99.88
59825;BME280;45703;50.898;6.054;2023-05-22T07:36:29;100105.22;;;15.74;100.00
59825;BME280;45703;50.898;6.054;2023-05-22T07:38:56;100098.16;;;15.63;99.91
59825;BME280;45703;50.898;6.054;2023-05-22T07:41:21;100108.44;;;15.71;100.00
59825;BME280;45703;50.898;6.054;2023-05-22T07:43:48;100115.94;;;15.69;100.00
59825;BME280;45703;50.898;6.054;2023-05-22T07:46:13;100110.56;;;15.69;100.00
59825;BME280;45703;50.898;6.054;2023-05-22T07:48:39;100118.09;;;15.67;100.00
59825;BME280;45703;50.898;6.054;2023-05-22T07:51:04;100122.41;;;15.68;100.00
59825;BME280;45703;50.898;6.054;2023-05-22T07:53:30;100125.09;;;15.68;100.00
59825;BME280;45703;50.898;6.054;2023-05-22T07:55:55;100129.88;;;15.61;100.00
59825;BME280;45703;50.898;6.054;2023-05-22T07:58:21;100122.38;;;15.63;100.00
59825;BME280;45703;50.898;6.054;2023-05-22T08:00:48;100120.69;;;15.57;100.00
59825;BME280;45703;50.898;6.054;2023-05-22T08:03:13;100128.78;;;15.57;100.00
59825;BME280;45703;50.898;6.054;2023-05-22T08:05:39;100128.16;;;15.50;100.00
59825;BME280;45703;50.898;6.054;2023-05-22T08:08:04;100131.19;;;15.59;100.00
59825;BME280;45703;50.898;6.054;2023-05-22T08:10:30;100133.56;;;15.55;100.00
59825;BME280;45703;50.898;6.054;2023-05-22T08:12:55;100124.69;;;15.55;100.00
59825;BME280;45703;50.898;6.054;2023-05-22T08:15:25;100133.28;;;15.52;100.00
59825;BME280;45703;50.898;6.054;2023-05-22T08:17:50;100126.25;;;15.46;100.00
59825;BME280;45703;50.898;6.054;2023-05-22T08:20:15;100131.91;;;15.49;100.00
59825;BME280;45703;50.898;6.054;2023-05-22T08:22:41;100134.91;;;15.53;100.00
59825;BME280;45703;50.898;6.054;2023-05-22T08:25:06;100133.84;;;15.54;100.00
59825;BME280;45703;50.898;6.054;2023-05-22T08:27:32;100138.41;;;15.53;100.00
59825;BME280;45703;50.898;6.054;2023-05-22T08:29:57;100129.81;;;15.56;100.00
59825;BME280;45703;50.898;6.054;2023-05-22T08:32:23;100142.81;;;15.64;100.00
59825;BME280;45703;50.898;6.054;2023-05-22T08:34:48;100141.47;;;15.67;100.00
59825;BME280;45703;50.898;6.054;2023-05-22T08:37:14;100138.00;;;15.66;100.00
59825;BME280;45703;50.898;6.054;2023-05-22T08:39:39;100136.88;;;15.62;100.00
59825;BME280;45703;50.898;6.054;2023-05-22T08:42:05;100136.94;;;15.67;100.00
59825;BME280;45703;50.898;6.054;2023-05-22T08:44:31;100143.66;;;15.70;100.00
59825;BME280;45703;50.898;6.054;2023-05-22T08:46:59;100131.81;;;15.71;100.00
59825;BME280;45703;50.898;6.054;2023-05-22T08:49:25;100136.44;;;15.75;100.00
59825;BME280;45703;50.898;6.054;2023-05-22T08:52:02;100149.75;;;15.87;99.20
59825;BME280;45703;50.898;6.054;2023-05-22T08:54:31;100145.19;;;15.92;99.47
59825;BME280;45703;50.898;6.054;2023-05-22T08:56:57;100135.75;;;15.90;99.26
59825;BME280;45703;50.898;6.054;2023-05-22T08:59:23;100137.66;;;15.94;98.67
59825;BME280;45703;50.898;6.054;2023-05-22T09:01:49;100145.78;;;15.99;98.17
59825;BME280;45703;50.898;6.054;2023-05-22T09:04:16;100148.22;;;16.00;98.96
59825;BME280;45703;50.898;6.054;2023-05-22T09:06:46;100136.13;;;16.03;98.08
59825;BME280;45703;50.898;6.054;2023-05-22T09:09:11;100146.69;;;16.09;97.82
59825;BME280;45703;50.898;6.054;2023-05-22T09:11:37;100145.28;;;16.07;97.84
59825;BME280;45703;50.898;6.054;2023-05-22T09:14:09;100148.78;;;16.02;98.54
59825;BME280;45703;50.898;6.054;2023-05-22T09:16:45;100142.31;;;16.03;98.26
59825;BME280;45703;50.898;6.054;2023-05-22T09:19:12;100150.41;;;16.03;98.57
59825;BME280;45703;50.898;6.054;2023-05-22T09:21:37;100140.97;;;16.06;97.89
59825;BME280;45703;50.898;6.054;2023-05-22T09:24:06;100152.88;;;16.10;97.89
59825;BME280;45703;50.898;6.054;2023-05-22T09:26:33;100136.63;;;16.00;98.53
59825;BME280;45703;50.898;6.054;2023-05-22T09:28:59;100152.63;;;16.11;97.59
59825;BME280;45703;50.898;6.054;2023-05-22T09:31:24;100157.75;;;16.13;98.55
59825;BME280;45703;50.898;6.054;2023-05-22T09:33:50;100159.63;;;16.12;97.37
59825;BME280;45703;50.898;6.054;2023-05-22T09:36:15;100152.91;;;16.15;98.48
59825;BME280;45703;50.898;6.054;2023-05-22T09:38:41;100151.28;;;16.14;98.70
59825;BME280;45703;50.898;6.054;2023-05-22T09:41:06;100155.88;;;16.18;97.99
59825;BME280;45703;50.898;6.054;2023-05-22T09:43:32;100146.47;;;16.16;98.23
59825;BME280;45703;50.898;6.054;2023-05-22T09:46:02;100151.34;;;16.24;98.03
59825;BME280;45703;50.898;6.054;2023-05-22T09:48:33;100156.25;;;16.32;97.71
59825;BME280;45703;50.898;6.054;2023-05-22T09:51:01;100149.06;;;16.37;98.19
59825;BME280;45703;50.898;6.054;2023-05-22T09:53:28;100144.47;;;16.38;97.98
59825;BME280;45703;50.898;6.054;2023-05-22T09:55:58;100160.47;;;16.54;97.85
59825;BME280;45703;50.898;6.054;2023-05-22T09:58:29;100144.00;;;16.56;97.15
59825;BME280;45703;50.898;6.054;2023-05-22T10:00:55;100163.50;;;16.68;98.07
59825;BME280;45703;50.898;6.054;2023-05-22T10:03:23;100162.69;;;16.72;96.15
59825;BME280;45703;50.898;6.054;2023-05-22T10:05:53;100158.38;;;16.71;96.09
59825;BME280;45703;50.898;6.054;2023-05-22T10:08:27;100154.34;;;16.69;95.99
59825;BME280;45703;50.898;6.054;2023-05-22T10:10:53;100158.91;;;16.68;96.35
59825;BME280;45703;50.898;6.054;2023-05-22T10:13:19;100164.34;;;16.78;95.13
59825;BME280;45703;50.898;6.054;2023-05-22T10:15:46;100168.97;;;16.83;95.12
59825;BME280;45703;50.898;6.054;2023-05-22T10:18:14;100160.03;;;16.82;94.91
59825;BME280;45703;50.898;6.054;2023-05-22T10:20:40;100160.34;;;16.86;94.84
59825;BME280;45703;50.898;6.054;2023-05-22T10:23:06;100163.34;;;16.89;95.17
59825;BME280;45703;50.898;6.054;2023-05-22T10:25:34;100144.69;;;16.83;97.39
59825;BME280;45703;50.898;6.054;2023-05-22T10:28:02;100159.81;;;16.89;96.91
59825;BME280;45703;50.898;6.054;2023-05-22T10:30:31;100154.72;;;16.92;95.32
59825;BME280;45703;50.898;6.054;2023-05-22T10:36:12;100153.38;;;17.00;95.13
59825;BME280;45703;50.898;6.054;2023-05-22T10:41:15;100150.97;;;17.08;95.04
59825;BME280;45703;50.898;6.054;2023-05-22T10:43:41;100145.84;;;17.07;95.01
59825;BME280;45703;50.898;6.054;2023-05-22T10:46:08;100154.53;;;17.14;94.32
59825;BME280;45703;50.898;6.054;2023-05-22T10:48:40;100142.13;;;17.18;95.20
59825;BME280;45703;50.898;6.054;2023-05-22T10:51:06;100150.75;;;17.20;95.14
59825;BME280;45703;50.898;6.054;2023-05-22T10:53:34;100131.31;;;17.13;95.82
59825;BME280;45703;50.898;6.054;2023-05-22T10:56:09;100136.75;;;17.28;94.49
59825;BME280;45703;50.898;6.054;2023-05-22T10:58:35;100149.72;;;17.36;94.45
59825;BME280;45703;50.898;6.054;2023-05-22T11:01:27;100144.88;;;17.42;93.27
59825;BME280;45703;50.898;6.054;2023-05-22T11:04:08;100140.31;;;17.43;94.40
59825;BME280;45703;50.898;6.054;2023-05-22T11:06:44;100149.75;;;17.50;93.01
59825;BME280;45703;50.898;6.054;2023-05-22T11:22:42;100135.69;;;17.39;94.69
59825;BME280;45703;50.898;6.054;2023-05-22T11:25:16;100133.53;;;17.41;94.79
59825;BME280;45703;50.898;6.054;2023-05-22T11:27:43;100142.19;;;17.47;94.56
59825;BME280;45703;50.898;6.054;2023-05-22T11:30:10;100144.63;;;17.54;93.89
59825;BME280;45703;50.898;6.054;2023-05-22T11:32:36;100139.00;;;17.60;93.94
59825;BME280;45703;50.898;6.054;2023-05-22T11:35:03;100142.47;;;17.71;94.07
59825;BME280;45703;50.898;6.054;2023-05-22T11:37:38;100155.44;;;17.79;92.99
59825;BME280;45703;50.898;6.054;2023-05-22T11:40:04;100143.84;;;17.83;93.05
59825;BME280;45703;50.898;6.054;2023-05-22T11:42:30;100151.41;;;17.91;92.54
59825;BME280;45703;50.898;6.054;2023-05-22T11:44:58;100144.38;;;17.95;92.25
59825;BME280;45703;50.898;6.054;2023-05-22T11:47:25;100137.34;;;17.89;93.08
59825;BME280;45703;50.898;6.054;2023-05-22T11:49:52;100145.75;;;17.93;93.21
59825;BME280;45703;50.898;6.054;2023-05-22T11:52:18;100142.19;;;18.02;92.87
59825;BME280;45703;50.898;6.054;2023-05-22T11:54:47;100139.50;;;18.12;91.70
59825;BME280;45703;50.898;6.054;2023-05-22T11:57:13;100130.88;;;18.15;91.66
59825;BME280;45703;50.898;6.054;2023-05-22T11:59:39;100136.81;;;18.27;91.47
59825;BME280;45703;50.898;6.054;2023-05-22T12:02:06;100134.88;;;18.33;90.45
59825;BME280;45703;50.898;6.054;2023-05-22T12:04:32;100133.03;;;18.28;91.07
59825;BME280;45703;50.898;6.054;2023-05-22T12:06:57;100123.81;;;18.24;91.58
59825;BME280;45703;50.898;6.054;2023-05-22T12:09:25;100132.19;;;18.38;90.79
59825;BME280;45703;50.898;6.054;2023-05-22T12:11:54;100139.44;;;18.47;90.14
59825;BME280;45703;50.898;6.054;2023-05-22T12:14:24;100132.97;;;18.48;89.77
59825;BME280;45703;50.898;6.054;2023-05-22T12:16:50;100141.56;;;18.60;89.49
59825;BME280;45703;50.898;6.054;2023-05-22T12:19:16;100134.00;;;18.62;89.68
59825;BME280;45703;50.898;6.054;2023-05-22T12:21:43;100131.84;;;18.69;88.94
59825;BME280;45703;50.898;6.054;2023-05-22T12:24:08;100133.44;;;18.75;89.09
59825;BME280;45703;50.898;6.054;2023-05-22T12:26:34;100140.97;;;18.78;89.11
59825;BME280;45703;50.898;6.054;2023-05-22T12:29:00;100139.06;;;18.79;89.43
59825;BME280;45703;50.898;6.054;2023-05-22T12:31:26;100142.31;;;18.81;88.91
59825;BME280;45703;50.898;6.054;2023-05-22T12:33:53;100133.94;;;18.77;89.08
59825;BME280;45703;50.898;6.054;2023-05-22T12:36:19;100136.09;;;18.85;89.05
59825;BME280;45703;50.898;6.054;2023-05-22T12:38:45;100141.44;;;18.95;88.00
59825;BME280;45703;50.898;6.054;2023-05-22T12:41:10;100145.75;;;19.01;88.56
59825;BME280;45703;50.898;6.054;2023-05-22T12:43:36;100138.94;;;19.08;87.94
59825;BME280;45703;50.898;6.054;2023-05-22T12:46:01;100133.53;;;19.08;86.76
59825;BME280;45703;50.898;6.054;2023-05-22T12:48:26;100137.56;;;19.11;87.30
59825;BME280;45703;50.898;6.054;2023-05-22T12:50:52;100135.13;;;19.14;87.27
59825;BME280;45703;50.898;6.054;2023-05-22T12:53:18;100132.41;;;19.19;87.64
59825;BME280;45703;50.898;6.054;2023-05-22T12:55:44;100134.56;;;19.22;87.07
59825;BME280;45703;50.898;6.054;2023-05-22T12:58:09;100129.97;;;19.23;87.13
59825;BME280;45703;50.898;6.054;2023-05-22T13:00:35;100116.69;;;19.21;87.20
59825;BME280;45703;50.898;6.054;2023-05-22T13:03:00;100129.91;;;19.33;86.71
59825;BME280;45703;50.898;6.054;2023-05-22T13:05:26;100129.34;;;19.36;86.32
59825;BME280;45703;50.898;6.054;2023-05-22T13:07:51;100128.22;;;19.42;86.03
59825;BME280;45703;50.898;6.054;2023-05-22T13:10:17;100105.19;;;19.44;86.22
59825;BME280;45703;50.898;6.054;2023-05-22T13:12:44;100117.25;;;19.57;85.61
59825;BME280;45703;50.898;6.054;2023-05-22T13:15:11;100103.25;;;19.50;84.77
59825;BME280;45703;50.898;6.054;2023-05-22T13:17:38;100125.66;;;19.60;85.13